createdAt,value
2019-05-25T00:01:05.768Z,8.03
2019-05-25T00:05:59.112Z,5.77
2019-05-25T00:10:52.536Z,4.33
2019-05-25T00:15:46.262Z,6.20
2019-05-25T00:20:39.600Z,5.17
2019-05-25T00:25:33.304Z,4.80
2019-05-25T00:30:26.649Z,4.27
2019-05-25T00:35:19.982Z,4.33
2019-05-25T00:40:13.417Z,3.30
2019-05-25T00:45:06.747Z,4.97
2019-05-25T00:50:00.079Z,5.33
2019-05-25T00:54:53.387Z,5.23
2019-05-25T00:59:46.943Z,4.13
2019-05-25T01:04:40.272Z,5.53
2019-05-25T01:09:33.716Z,3.63
2019-05-25T01:14:27.042Z,6.17
2019-05-25T01:19:20.375Z,6.97
2019-05-25T01:24:14.394Z,4.33
2019-05-25T01:29:08.131Z,4.47
2019-05-25T01:34:01.444Z,3.33
2019-05-25T01:38:55.182Z,5.73
2019-05-25T01:43:48.526Z,6.93
2019-05-25T01:48:41.952Z,5.43
2019-05-25T01:53:35.285Z,6.53
2019-05-25T01:58:28.716Z,6.27
2019-05-25T02:03:22.035Z,3.27
2019-05-25T02:08:15.467Z,5.37
2019-05-25T02:13:08.800Z,3.27
2019-05-25T02:18:02.225Z,3.47
2019-05-25T02:22:55.649Z,5.87
2019-05-25T02:27:48.874Z,3.53
2019-05-25T02:32:42.213Z,5.50
2019-05-25T02:37:35.735Z,5.33
2019-05-25T02:42:29.130Z,6.37
2019-05-25T02:47:22.478Z,4.70
2019-05-25T02:52:15.810Z,3.67
2019-05-25T02:57:09.126Z,3.60
2019-05-25T03:02:03.183Z,5.03
2019-05-25T03:06:56.658Z,5.77
2019-05-25T03:11:50.012Z,3.37
2019-05-25T03:16:43.460Z,4.10
2019-05-25T03:21:37.071Z,6.70
2019-05-25T03:26:30.546Z,5.47
2019-05-25T03:31:24.233Z,3.73
2019-05-25T03:36:17.471Z,2.50
2019-05-25T03:41:10.776Z,3.73
2019-05-25T03:46:04.136Z,4.17
2019-05-25T03:50:57.963Z,2.80
2019-05-25T03:56:04.787Z,4.13
2019-05-25T04:00:44.646Z,3.70
2019-05-25T04:05:38.144Z,5.57
2019-05-25T04:10:31.788Z,4.03
2019-05-25T04:15:26.129Z,3.80
2019-05-25T04:20:19.770Z,3.07
2019-05-25T04:25:13.450Z,5.27
2019-05-25T04:30:08.692Z,3.63
2019-05-25T04:35:02.407Z,2.83
2019-05-25T04:39:56.071Z,4.57
2019-05-25T04:44:49.409Z,6.10
2019-05-25T04:49:42.870Z,3.43
2019-05-25T04:54:36.506Z,3.40
2019-05-25T04:59:29.903Z,4.97
2019-05-25T05:04:23.229Z,5.13
2019-05-25T05:09:16.949Z,6.53
2019-05-25T05:14:10.305Z,5.47
2019-05-25T05:19:03.707Z,3.43
2019-05-25T05:23:57.018Z,6.63
2019-05-25T05:28:50.461Z,5.90
2019-05-25T05:33:43.761Z,5.67
2019-05-25T05:38:37.491Z,6.33
2019-05-25T05:43:30.830Z,3.57
2019-05-25T05:48:24.318Z,4.17
2019-05-25T05:53:18.109Z,4.47
2019-05-25T05:58:11.657Z,6.70
2019-05-25T06:03:07.882Z,5.47
2019-05-25T06:08:01.506Z,6.87
2019-05-25T06:12:54.854Z,4.53
2019-05-25T06:17:48.197Z,7.23
2019-05-25T06:22:41.526Z,4.50
2019-05-25T06:27:34.842Z,4.37
2019-05-25T06:32:28.175Z,2.60
2019-05-25T06:37:21.479Z,4.80
2019-05-25T06:42:14.814Z,4.03
2019-05-25T06:47:08.150Z,2.67
2019-05-25T06:52:01.596Z,5.47
2019-05-25T06:56:55.022Z,4.73
2019-05-25T07:01:48.646Z,4.27
2019-05-25T07:06:41.976Z,5.60
2019-05-25T07:11:35.709Z,5.07
2019-05-25T07:16:29.050Z,4.30
2019-05-25T07:21:22.476Z,6.30
2019-05-25T07:26:15.864Z,4.60
2019-05-25T07:31:09.203Z,5.80
2019-05-25T07:36:07.255Z,6.37
2019-05-25T07:40:56.661Z,5.57
2019-05-25T07:45:49.986Z,4.13
2019-05-25T07:50:43.320Z,5.97
2019-05-25T07:55:36.679Z,6.80
2019-05-25T08:00:30.127Z,5.27
2019-05-25T08:05:23.856Z,8.30
2019-05-25T08:10:17.503Z,6.97
2019-05-25T08:15:10.849Z,6.27
2019-05-25T08:20:04.406Z,3.93
2019-05-25T08:24:57.743Z,9.83
2019-05-25T08:29:51.226Z,10.07
2019-05-25T08:34:44.622Z,10.07
2019-05-25T08:39:38.100Z,5.83
2019-05-25T08:44:32.437Z,5.10
2019-05-25T08:49:26.083Z,7.07
2019-05-25T08:54:19.445Z,7.57
2019-05-25T08:59:12.844Z,5.87
2019-05-25T09:04:06.227Z,5.43
2019-05-25T09:09:00.497Z,7.33
2019-05-25T09:13:54.098Z,7.83
2019-05-25T09:18:47.671Z,6.90
2019-05-25T09:23:40.984Z,6.53
2019-05-25T09:28:34.849Z,5.93
2019-05-25T09:33:28.210Z,6.33
2019-05-25T09:38:21.621Z,12.03
2019-05-25T09:43:15.425Z,6.20
2019-05-25T09:48:09.105Z,7.53
2019-05-25T09:53:02.529Z,6.53
2019-05-25T09:57:56.174Z,7.27
2019-05-25T10:02:49.738Z,7.60
2019-05-25T10:07:43.472Z,5.07
2019-05-25T10:12:36.852Z,5.70
2019-05-25T10:17:30.479Z,9.13
2019-05-25T10:22:23.874Z,9.40
2019-05-25T10:27:17.541Z,9.80
2019-05-25T10:32:11.240Z,5.03
2019-05-25T10:37:04.740Z,7.83
2019-05-25T10:41:58.137Z,7.53
2019-05-25T10:46:51.979Z,6.30
2019-05-25T10:51:45.506Z,5.83
2019-05-25T10:56:38.880Z,5.27
2019-05-25T11:01:32.549Z,7.70
2019-05-25T11:06:26.058Z,11.13
2019-05-25T11:11:19.795Z,6.07
2019-05-25T11:16:14.418Z,7.73
2019-05-25T11:21:07.980Z,5.30
2019-05-25T11:26:01.780Z,5.17
2019-05-25T11:30:55.474Z,6.63
2019-05-25T11:35:48.821Z,6.97
2019-05-25T11:40:42.350Z,4.30
2019-05-25T11:45:35.730Z,4.70
2019-05-25T11:50:29.293Z,3.97
2019-05-25T11:55:22.628Z,3.53
2019-05-25T12:00:24.775Z,5.40
2019-05-25T12:05:10.000Z,5.60
2019-05-25T12:10:03.527Z,8.13
2019-05-25T12:14:56.841Z,5.87
2019-05-25T12:19:50.283Z,5.70
2019-05-25T12:24:43.611Z,4.27
2019-05-25T12:29:37.044Z,3.87
2019-05-25T12:34:30.338Z,4.20
2019-05-25T12:39:26.597Z,5.93
2019-05-25T12:44:17.082Z,7.50
2019-05-25T12:49:10.561Z,7.03
2019-05-25T12:54:04.290Z,5.60
2019-05-25T12:58:57.920Z,6.70
2019-05-25T13:03:51.356Z,6.17
2019-05-25T13:08:44.991Z,5.80
2019-05-25T13:13:38.333Z,5.67
2019-05-25T13:18:31.751Z,7.70
2019-05-25T13:23:25.164Z,8.77
2019-05-25T13:28:18.814Z,7.17
2019-05-25T13:33:12.511Z,5.73
2019-05-25T13:38:06.086Z,7.93
2019-05-25T13:42:59.426Z,7.73
2019-05-25T13:47:52.785Z,8.23
2019-05-25T13:52:46.131Z,11.43
2019-05-25T13:57:39.746Z,9.97
2019-05-25T14:02:33.081Z,8.97
2019-05-25T14:07:26.420Z,6.90
2019-05-25T14:12:19.768Z,7.07
2019-05-25T14:17:13.427Z,6.50
2019-05-25T14:22:06.884Z,7.57
2019-05-25T14:27:00.286Z,5.80
2019-05-25T14:31:53.661Z,8.13
2019-05-25T14:36:47.004Z,7.93
2019-05-25T14:41:40.416Z,10.47
2019-05-25T14:46:33.764Z,8.90
2019-05-25T14:51:27.204Z,10.97
2019-05-25T14:56:20.642Z,10.53
2019-05-25T15:01:14.291Z,8.83
2019-05-25T15:06:07.628Z,7.73
2019-05-25T15:11:01.014Z,4.70
2019-05-25T15:15:54.317Z,8.63
2019-05-25T15:20:47.837Z,4.60
2019-05-25T15:25:41.138Z,5.43
2019-05-25T15:30:34.521Z,6.37
2019-05-25T15:35:27.914Z,3.40
2019-05-25T15:40:21.258Z,5.70
2019-05-25T15:45:14.565Z,7.03
2019-05-25T15:50:08.042Z,4.37
2019-05-25T15:55:01.355Z,4.30
2019-05-25T15:59:54.799Z,6.87
2019-05-25T16:04:48.132Z,3.83
2019-05-25T16:09:41.553Z,5.90
2019-05-25T16:14:35.023Z,7.37
2019-05-25T16:19:28.604Z,3.70
2019-05-25T16:24:21.937Z,5.27
2019-05-25T16:29:15.276Z,5.03
2019-05-25T16:34:10.556Z,3.73
2019-05-25T16:39:01.980Z,5.73
2019-05-25T16:43:55.309Z,5.33
2019-05-25T16:48:48.937Z,3.83
2019-05-25T16:53:48.825Z,3.10
2019-05-25T16:58:42.149Z,5.27
2019-05-25T17:03:35.514Z,5.77
2019-05-25T17:08:28.840Z,3.10
2019-05-25T17:13:22.162Z,1.87
2019-05-25T17:18:15.623Z,5.97
2019-05-25T17:23:08.978Z,6.77
2019-05-25T17:28:02.376Z,4.27
2019-05-25T17:32:55.726Z,8.97
2019-05-25T17:37:49.070Z,3.73
2019-05-25T17:42:42.416Z,4.00
2019-05-25T17:47:35.912Z,4.23
2019-05-25T17:52:29.239Z,6.60
2019-05-25T17:57:22.616Z,5.10
2019-05-25T18:02:15.951Z,5.00
2019-05-25T18:07:09.298Z,3.27
2019-05-25T18:12:02.796Z,5.87
2019-05-25T18:16:56.126Z,7.23
2019-05-25T18:21:50.059Z,4.23
2019-05-25T18:26:43.398Z,5.70
2019-05-25T18:31:36.927Z,4.80
2019-05-25T18:36:30.324Z,4.80
2019-05-25T18:41:23.657Z,3.73
2019-05-25T18:46:16.985Z,3.67
2019-05-25T18:51:10.426Z,4.20
2019-05-25T18:56:03.789Z,3.83
2019-05-25T19:00:57.135Z,4.53
2019-05-25T19:05:50.836Z,3.57
2019-05-25T19:10:44.177Z,3.10
2019-05-25T19:15:37.510Z,5.27
2019-05-25T19:20:30.847Z,5.17
2019-05-25T19:25:24.197Z,5.07
2019-05-25T19:30:17.786Z,4.10
2019-05-25T19:35:11.139Z,4.90
2019-05-25T19:40:08.636Z,5.17
2019-05-25T19:44:57.939Z,4.40
2019-05-25T19:49:51.595Z,4.97
2019-05-25T19:54:45.480Z,2.77
2019-05-25T19:59:38.825Z,4.43
2019-05-25T20:04:32.175Z,3.43
2019-05-25T20:09:25.512Z,3.03
2019-05-25T20:14:18.843Z,5.23
2019-05-25T20:19:12.179Z,4.47
2019-05-25T20:24:05.520Z,4.97
2019-05-25T20:28:58.954Z,5.40
2019-05-25T20:33:52.295Z,6.20
2019-05-25T20:38:45.639Z,5.00
2019-05-25T20:43:38.987Z,6.93
2019-05-25T20:48:32.320Z,11.43
2019-05-25T20:53:25.675Z,9.00
2019-05-25T20:58:19.218Z,5.30
2019-05-25T21:03:12.579Z,4.23
2019-05-25T21:08:06.049Z,6.80
2019-05-25T21:13:00.912Z,6.00
2019-05-25T21:17:54.252Z,4.87
2019-05-25T21:22:47.585Z,8.00
2019-05-25T21:27:41.129Z,7.40
2019-05-25T21:32:34.723Z,9.83
2019-05-25T21:37:28.070Z,6.60
2019-05-25T21:42:21.469Z,9.00
2019-05-25T21:47:14.962Z,5.67
2019-05-25T21:52:08.347Z,6.10
2019-05-25T21:57:01.663Z,4.60
2019-05-25T22:01:55.305Z,6.40
2019-05-25T22:06:48.646Z,7.00
2019-05-25T22:11:42.050Z,8.67
2019-05-25T22:16:35.415Z,6.10
2019-05-25T22:21:29.113Z,5.67
2019-05-25T22:26:22.465Z,8.57
2019-05-25T22:31:16.205Z,7.40
2019-05-25T22:36:09.537Z,6.73
2019-05-25T22:41:03.556Z,7.87
2019-05-25T22:45:57.243Z,8.07
2019-05-25T22:50:50.864Z,6.17
2019-05-25T22:55:44.194Z,9.30
2019-05-25T23:00:37.711Z,11.63
2019-05-25T23:05:31.385Z,10.23
2019-05-25T23:10:24.718Z,8.70
2019-05-25T23:15:18.310Z,13.50
2019-05-25T23:20:11.714Z,12.00
2019-05-25T23:25:05.057Z,11.47
2019-05-25T23:29:58.571Z,9.13
2019-05-25T23:34:51.930Z,11.10
2019-05-25T23:39:45.363Z,12.37
2019-05-25T23:44:38.675Z,11.33
2019-05-25T23:49:32.005Z,9.53
2019-05-25T23:54:25.339Z,10.90
2019-05-25T23:59:18.976Z,12.87
